Time;durP1;ratioP1;P1;durP2;ratioP2;P2;SDS_P1;SDS_P2;PMS_P1;PMS_P2;Temp;Humidity;BMP_temperature;BMP_pressure;BME280_temperature;BME280_humidity;BME280_pressure;Samples;Min_cycle;Max_cycle;Signal;HPM_P1;HPM_P2
2023/12/16 00:01:39;;;;;;;14.20;3.65;;;;;;;-144.05;65.56;57023.00;5033571;28;20498;-76
2023/12/16 00:04:05;;;;;;;13.20;3.80;;;;;;;-144.05;65.80;57056.97;5034730;28;20057;-77
2023/12/16 00:06:32;;;;;;;11.18;3.80;;;;;;;-144.05;65.83;57031.50;5035740;28;20035;-76
2023/12/16 00:08:58;;;;;;;20.50;4.88;;;;;;;-144.05;66.20;57050.63;5043798;28;20091;-77
2023/12/16 00:11:24;;;;;;;13.20;3.65;;;;;;;-144.05;65.81;57035.75;5028800;28;20030;-77
2023/12/16 00:13:51;;;;;;;12.10;4.25;;;;;;;-144.05;65.99;57035.75;5034192;28;20030;-77
2023/12/16 00:16:17;;;;;;;10.45;4.57;;;;;;;-144.05;66.15;57008.13;5025943;28;20025;-77
2023/12/16 00:18:43;;;;;;;21.20;4.35;;;;;;;-144.05;66.26;57069.72;5034391;28;20482;-77
2023/12/16 00:21:10;;;;;;;14.52;4.60;;;;;;;-144.05;65.99;57059.09;5034626;28;20030;-76
2023/12/16 00:23:36;;;;;;;21.48;4.65;;;;;;;-144.05;65.87;57031.50;5033079;28;20468;-77
2023/12/16 00:26:02;;;;;;;13.98;4.03;;;;;;;-144.05;65.95;56997.50;5034231;28;20029;-77
2023/12/16 00:28:29;;;;;;;23.55;5.13;;;;;;;-144.05;65.65;57031.50;5033837;28;20464;-78
2023/12/16 00:30:55;;;;;;;14.23;3.90;;;;;;;-144.05;65.78;57016.63;5033719;28;20029;-77
2023/12/16 00:33:21;;;;;;;15.50;4.45;;;;;;;-144.05;65.69;57031.50;5015122;28;20109;-76
2023/12/16 00:35:47;;;;;;;12.85;3.95;;;;;;;-144.05;65.85;57042.13;5033915;28;20029;-77
2023/12/16 00:38:14;;;;;;;15.80;3.97;;;;;;;-144.05;65.67;56999.63;5032287;28;20037;-79
2023/12/16 00:40:40;;;;;;;16.23;4.07;;;;;;;-144.05;65.99;57008.13;5034611;28;20033;-78
2023/12/16 00:43:06;;;;;;;16.00;3.78;;;;;;;-144.05;66.15;57046.38;5034169;28;20025;-78
2023/12/16 00:45:32;;;;;;;14.00;3.75;;;;;;;-144.05;65.68;57048.50;5034524;28;20033;-77
2023/12/16 00:47:59;;;;;;;13.82;3.90;;;;;;;-144.05;65.93;57031.50;5034013;28;20029;-77
2023/12/16 00:50:25;;;;;;;19.50;4.53;;;;;;;-144.05;66.28;57006.00;5033842;28;20136;-78
2023/12/16 00:52:51;;;;;;;15.43;4.35;;;;;;;-144.05;66.48;57044.25;5033368;28;20104;-79
2023/12/16 00:55:17;;;;;;;12.77;5.20;;;;;;;-144.05;66.39;57031.50;5033902;28;20089;-77
2023/12/16 00:57:44;;;;;;;14.48;4.60;;;;;;;-144.05;66.51;57050.63;5033222;28;20100;-78
2023/12/16 01:00:11;;;;;;;13.65;4.78;;;;;;;-144.05;66.88;57014.50;5033247;28;20037;-77
2023/12/16 01:02:37;;;;;;;9.23;4.28;;;;;;;-144.05;67.13;57029.38;5032989;28;20398;-77
2023/12/16 01:05:04;;;;;;;19.15;5.25;;;;;;;-144.05;66.92;57048.50;5033039;28;20030;-77
2023/12/16 01:07:30;;;;;;;17.73;5.22;;;;;;;-144.05;67.58;57025.13;5033455;28;20109;-77
2023/12/16 01:09:56;;;;;;;17.58;4.82;;;;;;;-144.05;67.65;57033.63;5033134;28;20025;-77
2023/12/16 01:12:23;;;;;;;15.70;4.88;;;;;;;-144.05;67.71;57027.25;5033095;28;20104;-76
2023/12/16 01:14:50;;;;;;;13.27;4.60;;;;;;;-144.05;68.15;57033.63;5045012;28;20087;-75
2023/12/16 01:17:16;;;;;;;17.27;5.00;;;;;;;-144.05;68.00;57046.38;5055175;28;20060;-79
2023/12/16 01:19:43;;;;;;;17.27;5.55;;;;;;;-144.05;68.06;57025.13;5035370;28;20053;-77
2023/12/16 01:22:10;;;;;;;13.02;4.97;;;;;;;-144.05;68.20;57048.50;5049335;28;20033;-78
2023/12/16 01:24:37;;;;;;;13.13;5.63;;;;;;;-144.05;68.21;57016.63;5034539;28;20026;-77
2023/12/16 01:27:05;;;;;;;15.65;5.70;;;;;;;-144.05;68.52;57044.25;5014988;28;20043;-78
2023/12/16 01:29:31;;;;;;;11.48;5.40;;;;;;;-144.05;68.39;57012.38;5032150;28;20380;-77
2023/12/16 01:31:57;;;;;;;22.95;5.50;;;;;;;-144.05;68.28;57031.50;5031695;28;20037;-77
2023/12/16 01:34:23;;;;;;;15.93;5.20;;;;;;;-144.05;68.40;57059.09;5032369;28;20047;-77
2023/12/16 01:36:49;;;;;;;16.40;5.40;;;;;;;-144.05;68.57;57065.47;5032253;28;20036;-77
2023/12/16 01:39:16;;;;;;;15.02;4.45;;;;;;;-144.05;68.37;57042.13;5032539;28;20034;-77
2023/12/16 01:41:42;;;;;;;20.48;6.05;;;;;;;-144.05;68.52;57012.38;5032204;28;20033;-77
2023/12/16 01:44:08;;;;;;;16.02;6.50;;;;;;;-144.05;68.30;57056.97;5032329;28;20029;-77
2023/12/16 01:46:35;;;;;;;15.75;5.55;;;;;;;-144.05;68.08;57056.97;5032722;28;20410;-77
2023/12/16 01:49:02;;;;;;;21.42;5.70;;;7.90;99.90;;;-144.05;68.45;57061.22;5032095;28;20044;-77
2023/12/16 01:51:32;;;;;;;17.05;4.70;;;8.10;99.90;;;-144.05;68.20;57016.63;5032029;28;20495;-78
2023/12/16 01:53:59;;;;;;;18.42;6.30;;;;;;;-144.05;68.13;56991.13;5031824;28;20112;-78
2023/12/16 01:56:29;;;;;;;12.50;5.28;;;7.80;99.90;;;-144.05;68.09;57018.75;5031574;28;20029;-78
2023/12/16 01:58:55;;;;;;;21.58;5.40;;;;;;;-144.05;68.27;57025.13;5031892;28;20387;-78
2023/12/16 02:01:22;;;;;;;18.00;5.75;;;;;;;-144.05;68.43;57029.38;5032078;28;20061;-78
2023/12/16 02:03:50;;;;;;;17.88;5.45;;;;;;;-144.05;68.37;57048.50;5033125;28;20033;-78
2023/12/16 02:06:17;;;;;;;12.95;4.85;;;;;;;-144.05;67.88;57046.38;5035852;28;20118;-76
2023/12/16 02:08:44;;;;;;;14.00;4.93;;;;;;;-144.05;67.65;57040.00;5035713;28;20026;-77
2023/12/16 02:11:12;;;;;;;18.65;6.97;;;;;;;-144.05;67.87;57061.22;5035548;28;20026;-77
2023/12/16 02:13:40;;;;;;;10.93;4.43;;;;;;;-144.05;67.52;57035.75;5036323;28;20036;-78
2023/12/16 02:16:09;;;;;;;20.35;5.00;;;;;;;-144.05;67.56;57050.63;5036593;28;20029;-77
2023/12/16 02:18:36;;;;;;;22.38;6.55;;;;;;;-144.05;67.30;57063.34;5036073;28;20546;-77
2023/12/16 02:21:04;;;;;;;14.52;5.68;;;;;;;-144.05;67.58;57040.00;5035698;28;20293;-77
2023/12/16 02:23:30;;;;;;;20.55;5.80;;;;;;;-144.05;67.88;57010.25;5036519;28;20030;-77
2023/12/16 02:25:56;;;;;;;16.13;5.60;;;;;;;-144.05;67.69;57050.63;5036134;28;20029;-78
2023/12/16 02:28:23;;;;;;;21.02;5.10;;;;;;;-144.05;67.86;57040.00;5036331;28;20029;-78
2023/12/16 02:30:49;;;;;;;16.02;5.63;;;;;;;-144.05;68.08;57031.50;5035915;28;20318;-78
2023/12/16 02:33:17;;;;;;;17.70;5.35;;;;;;;-144.05;67.73;57012.38;5036356;28;20029;-79
2023/12/16 02:35:43;;;;;;;22.13;5.70;;;;;;;-144.05;68.04;57031.50;5036135;28;20038;-75
2023/12/16 02:38:09;;;;;;;16.13;5.28;;;;;;;-144.05;67.18;57044.25;5036844;28;20053;-78
2023/12/16 02:40:41;;;;;;;16.70;5.18;;;;;;;-144.05;67.72;57065.47;5036485;28;20030;-77
2023/12/16 02:43:11;;;;;;;16.58;4.55;;;;;;;-144.05;67.48;57025.13;5036265;28;20068;-78
2023/12/16 02:45:38;;;;;;;15.30;5.18;;;;;;;-144.05;67.51;57029.38;5036006;28;20068;-76
2023/12/16 02:48:05;;;;;;;15.40;4.70;;;;;;;-144.05;67.07;57025.13;5036540;28;20093;-79
2023/12/16 02:50:31;;;;;;;13.35;4.43;;;;;;;-144.05;66.93;57046.38;5036544;28;20033;-77
2023/12/16 02:52:57;;;;;;;20.88;5.25;;;;;;;-144.05;66.83;56993.25;5036161;28;20406;-78
2023/12/16 02:55:24;;;;;;;18.27;5.03;;;;;;;-144.05;66.73;57010.25;5036433;28;20033;-78
2023/12/16 02:57:50;;;;;;;12.63;4.38;;;;;;;-144.05;66.92;57042.13;5037703;28;20474;-78
2023/12/16 03:00:16;;;;;;;18.85;4.75;;;;;;;-144.05;66.87;57031.50;5044662;28;20025;-78
2023/12/16 03:02:42;;;;;;;15.45;4.50;;;;;;;-144.05;66.73;57050.63;5037001;28;20053;-78
2023/12/16 03:05:08;;;;;;;15.15;4.55;;;;;;;-144.05;66.17;57061.22;5037238;28;20124;-77
2023/12/16 03:07:37;;;;;;;21.55;4.70;;;;;;;-144.05;66.29;57069.72;5040395;28;20471;-78
2023/12/16 03:10:04;;;;;;;16.95;4.60;;;;;;;-144.05;66.09;57050.63;5038280;28;20500;-79
2023/12/16 03:12:31;;;;;;;9.85;4.32;;;;;;;-144.05;65.79;57048.50;5037065;28;20391;-77
2023/12/16 03:14:57;;;;;;;19.50;5.22;;;;;;;-144.05;65.66;57048.50;5035967;28;20159;-77
2023/12/16 03:17:23;;;;;;;13.25;3.92;;;;;;;-144.05;65.18;57059.09;5036854;28;20442;-79
2023/12/16 03:19:49;;;;;;;15.10;3.70;;;;;;;-144.05;65.32;57025.13;5035642;28;20029;-79
2023/12/16 03:22:15;;;;;;;17.98;4.43;;;;;;;-144.05;65.04;56986.91;5036267;28;20038;-79
2023/12/16 03:24:42;;;;;;;15.85;4.07;;;;;;;-144.05;64.97;57040.00;5035437;28;20075;-76
2023/12/16 03:27:08;;;;;;;12.15;3.38;;;;;;;-144.05;64.45;57023.00;5036547;28;20113;-78
2023/12/16 03:29:35;;;;;;;10.00;3.08;;;;;;;-144.05;64.78;57027.25;5035811;28;20021;-77
2023/12/16 03:32:01;;;;;;;16.55;3.78;;;;;;;-144.05;64.55;57025.13;5035118;28;20041;-79
2023/12/16 03:34:30;;;;;;;13.85;4.03;;;;;;;-144.05;64.92;57050.63;5035073;28;20044;-78
2023/12/16 03:36:56;;;;;;;15.10;3.80;;;;;;;-144.05;64.33;57027.25;5035112;28;20033;-80
2023/12/16 03:39:22;;;;;;;8.73;3.28;;;;;;;-144.05;64.29;57023.00;5034635;28;20030;-76
2023/12/16 03:41:48;;;;;;;11.40;3.28;;;;;;;-144.05;64.26;57052.75;5034935;28;20044;-77
2023/12/16 03:44:14;;;;;;;14.52;4.18;;;;;;;-144.05;64.38;57063.34;5034968;28;20294;-77
2023/12/16 03:46:41;;;;;;;10.38;3.38;;;;;;;-144.05;64.40;57029.38;5034384;28;20052;-77
2023/12/16 03:49:07;;;;;;;16.23;4.50;;;;;;;-144.05;64.08;57014.50;5028365;28;20029;-79
2023/12/16 03:51:33;;;;;;;10.05;3.35;;;;;;;-144.05;64.14;57048.50;5037025;28;20029;-79
2023/12/16 03:53:59;;;;;;;15.30;3.80;;;;;;;-144.05;64.11;57040.00;5038216;28;20441;-79
2023/12/16 03:56:27;;;;;;;15.65;3.55;;;;;;;-144.05;63.69;57029.38;5039856;28;20059;-78
2023/12/16 03:58:53;;;;;;;17.65;3.75;;;;;;;-144.05;63.74;57044.25;5038415;28;20045;-77
2023/12/16 04:01:20;;;;;;;14.15;3.33;;;;;;;-144.05;63.54;57018.75;5037877;28;20029;-78
2023/12/16 04:03:46;;;;;;;13.10;3.67;;;;;;;-144.05;63.48;57025.13;5053275;28;20063;-79
2023/12/16 04:06:13;;;;;;;10.50;2.97;;;;;;;-144.05;63.82;57046.38;5046990;28;20060;-77
2023/12/16 04:08:40;;;;;;;11.65;3.17;;;;;;;-144.05;63.90;56999.63;5035571;28;20025;-77
2023/12/16 04:11:07;;;;;;;9.88;3.33;;;;;;;-144.05;64.00;57035.75;5027834;28;20510;-77
2023/12/16 04:13:37;;;;;;;13.82;3.30;;;;;;;-144.05;63.66;57016.63;5017582;28;20409;-78
2023/12/16 04:16:04;;;;;;;12.40;2.95;;;7.30;99.90;;;-144.05;64.21;57023.00;5035690;28;20452;-77
2023/12/16 04:18:32;;;;;;;10.93;3.45;;;8.70;99.90;;;-144.05;63.86;57048.50;5036108;28;20061;-78
2023/12/16 04:20:59;;;;;;;13.90;3.20;;;;;;;-144.05;64.34;57050.63;5035192;28;20479;-77
2023/12/16 04:23:25;;;;;;;12.18;3.53;;;;;;;-144.05;64.58;57025.13;5035494;28;20509;-77
2023/12/16 04:25:51;;;;;;;7.97;2.70;;;;;;;-144.05;64.28;57044.25;5035289;28;20037;-77
2023/12/16 04:28:18;;;;;;;11.90;4.20;;;;;;;-144.05;64.43;57071.84;5035196;28;20029;-78
2023/12/16 04:30:44;;;;;;;21.00;3.47;;;;;;;-144.05;64.46;57054.88;5035390;28;20028;-77
2023/12/16 04:33:10;;;;;;;13.52;3.90;;;;;;;-144.05;64.23;57061.22;5035345;28;20029;-77
2023/12/16 04:35:36;;;;;;;11.90;2.55;;;;;;;-144.05;63.75;57016.63;5036184;28;20088;-76
2023/12/16 04:38:02;;;;;;;13.10;3.17;;;;;;;-144.05;63.55;57056.97;5035652;28;20029;-77
2023/12/16 04:40:29;;;;;;;19.50;2.97;;;;;;;-144.05;63.98;57010.25;5035932;28;20072;-77
2023/12/16 04:42:55;;;;;;;6.50;3.03;;;;;;;-144.05;64.10;57040.00;5035573;28;20348;-77
2023/12/16 04:45:21;;;;;;;12.23;3.03;;;;;;;-144.05;63.79;57033.63;5035005;28;20037;-78
2023/12/16 04:47:48;;;;;;;11.48;2.80;;;;;;;-144.05;63.82;57063.34;5034566;28;20029;-77
2023/12/16 04:50:14;;;;;;;16.40;4.05;;;;;;;-144.05;63.70;57048.50;5035507;28;20025;-77
2023/12/16 04:52:40;;;;;;;12.77;4.10;;;;;;;-144.05;64.28;57042.13;5034324;28;20033;-78
2023/12/16 04:55:07;;;;;;;13.25;3.30;;;;;;;-144.05;64.09;57031.50;5033955;28;20025;-78
2023/12/16 04:57:34;;;;;;;11.98;3.75;;;;;;;-144.05;63.80;57008.13;5034049;28;20030;-78
2023/12/16 05:00:00;;;;;;;14.18;3.92;;;;;;;-144.05;64.16;57048.50;5034743;28;20089;-79
2023/12/16 05:02:26;;;;;;;9.45;2.95;;;;;;;-144.05;63.88;57025.13;5035105;28;20060;-78
2023/12/16 05:04:52;;;;;;;10.27;3.33;;;;;;;-144.05;64.03;57067.59;5034633;28;20025;-80
2023/12/16 05:07:19;;;;;;;9.35;2.72;;;;;;;-144.05;63.72;57035.75;5034778;28;20063;-78
2023/12/16 05:09:45;;;;;;;17.05;3.50;;;;;;;-144.05;63.58;57052.75;5034616;28;20037;-78
2023/12/16 05:12:11;;;;;;;13.98;3.22;;;;;;;-144.05;63.71;57059.09;5034408;28;20537;-79
2023/12/16 05:14:40;;;;;;;19.67;3.42;;;7.60;99.90;;;-144.05;63.87;57025.13;5034151;28;20143;-77
2023/12/16 05:17:06;;;;;;;9.07;2.83;;;;;;;-144.05;63.38;57056.97;5034420;28;20051;-77
2023/12/16 05:19:32;;;;;;;12.85;3.30;;;;;;;-144.05;64.02;57061.22;5034156;28;20029;-77
2023/12/16 05:21:58;;;;;;;10.07;2.70;;;;;;;-144.05;63.87;57016.63;5033872;28;20029;-77
2023/12/16 05:24:24;;;;;;;9.50;2.80;;;;;;;-144.05;64.07;57029.38;5034346;28;20025;-77
2023/12/16 05:26:51;;;;;;;6.55;2.72;;;;;;;-144.05;64.43;57044.25;5033687;28;20038;-77
2023/12/16 05:29:17;;;;;;;14.02;3.10;;;;;;;-144.05;64.13;57069.72;5034308;28;20153;-79
2023/12/16 05:31:43;;;;;;;8.38;2.55;;;;;;;-144.05;63.61;57014.50;5034709;28;20091;-77
2023/12/16 05:34:10;;;;;;;13.23;3.03;;;;;;;-144.05;63.90;57025.13;5034273;28;20029;-81
2023/12/16 05:36:36;;;;;;;10.88;2.95;;;;;;;-144.05;63.86;57071.84;5034550;28;20109;-78
2023/12/16 05:39:03;;;;;;;15.23;3.30;;;;;;;-144.05;63.82;57027.25;5034231;28;20030;-77
2023/12/16 05:41:29;;;;;;;9.82;3.25;;;;;;;-144.05;63.46;57056.97;5035363;28;20041;-77
2023/12/16 05:43:56;;;;;;;10.85;2.63;;;;;;;-144.05;62.99;57067.59;5017615;28;20080;-77
2023/12/16 05:46:22;;;;;;;16.15;3.67;;;;;;;-144.05;62.80;57020.88;5017316;28;20030;-78
2023/12/16 05:48:48;;;;;;;20.65;3.92;;;;;;;-144.05;62.77;57063.34;5041592;28;20029;-78
2023/12/16 05:51:15;;;;;;;9.73;2.50;;;;;;;-144.05;62.91;57025.13;5037203;28;20025;-77
2023/12/16 05:53:41;;;;;;;9.32;2.42;;;;;;;-144.05;62.96;57029.38;5034720;28;20383;-80
2023/12/16 05:56:09;;;;;;;10.65;2.67;;;;;;;-144.05;62.49;57042.13;5036279;28;20025;-78
2023/12/16 05:58:35;;;;;;;11.30;3.30;;;;;;;-144.05;62.54;57023.00;5035699;28;20120;-77
2023/12/16 06:01:06;;;;;;;14.38;3.42;;;;;;;-144.05;62.05;57046.38;5036002;28;20129;-77
2023/12/16 06:03:32;;;;;;;12.35;3.20;;;;;;;-144.05;62.06;57056.97;5036012;28;20029;-78
2023/12/16 06:05:58;;;;;;;8.55;2.60;;;;;;;-144.05;62.14;57076.09;5033985;28;20482;-77
2023/12/16 06:08:25;;;;;;;12.38;2.83;;;;;;;-144.05;62.23;57048.50;5034194;28;20033;-78
2023/12/16 06:10:51;;;;;;;10.80;2.35;;;;;;;-144.05;62.20;57016.63;5017149;28;20024;-79
2023/12/16 06:13:17;;;;;;;10.32;3.08;;;;;;;-144.05;62.05;57031.50;5034888;28;20033;-78
2023/12/16 06:15:43;;;;;;;10.18;3.30;;;;;;;-144.05;61.77;57016.63;5034419;28;20029;-77
2023/12/16 06:18:10;;;;;;;14.25;4.32;;;;;;;-144.05;62.06;57025.13;5035336;28;20064;-80
2023/12/16 06:20:36;;;;;;;14.05;3.30;;;;;;;-144.05;61.79;57069.72;5035172;28;20121;-78
2023/12/16 06:23:02;;;;;;;10.43;2.97;;;;;;;-144.05;61.82;57008.13;5033978;28;20059;-80
2023/12/16 06:25:28;;;;;;;9.40;2.80;;;;;;;-144.05;61.81;57056.97;5033424;28;20029;-80
2023/12/16 06:27:54;;;;;;;8.30;2.85;;;;;;;-144.05;61.47;57076.09;5035705;28;20049;-76
2023/12/16 06:30:21;;;;;;;11.68;2.92;;;;;;;-144.05;62.12;57048.50;5035557;28;20112;-78
2023/12/16 06:32:47;;;;;;;20.02;3.67;;;;;;;-144.05;61.63;57052.75;5035117;28;20128;-78
2023/12/16 06:35:13;;;;;;;10.45;2.85;;;;;;;-144.05;62.13;57027.25;5035125;28;20128;-78
2023/12/16 06:37:39;;;;;;;13.57;3.63;;;;;;;-144.05;61.64;57014.50;5035347;28;20040;-77
2023/12/16 06:40:07;;;;;;;12.70;3.22;;;8.10;99.90;;;-144.05;61.78;57040.00;5035499;28;20041;-78
2023/12/16 06:42:33;;;;;;;14.35;3.00;;;;;;;-144.05;61.89;57042.13;5035743;28;20028;-79
2023/12/16 06:44:59;;;;;;;16.48;3.38;;;;;;;-144.05;61.69;57065.47;5035327;28;20041;-77
2023/12/16 06:47:26;;;;;;;13.07;3.15;;;;;;;-144.05;62.08;57054.88;5036238;28;20049;-78
2023/12/16 06:49:53;;;;;;;12.88;3.25;;;;;;;-144.05;61.56;57054.88;5040832;28;20021;-79
2023/12/16 06:52:19;;;;;;;10.68;2.97;;;;;;;-144.05;61.34;57012.38;5055480;28;20068;-77
2023/12/16 06:54:45;;;;;;;14.52;3.28;;;;;;;-144.05;61.50;57042.13;5040552;28;20441;-77
2023/12/16 06:57:11;;;;;;;10.18;2.70;;;;;;;-144.05;61.55;57044.25;5039094;28;20107;-79
2023/12/16 06:59:38;;;;;;;12.25;3.03;;;;;;;-144.05;61.65;57012.38;5039227;28;20521;-79
2023/12/16 07:02:04;;;;;;;11.15;3.58;;;;;;;-144.05;61.93;57027.25;5038042;28;20087;-78
2023/12/16 07:04:31;;;;;;;16.98;3.33;;;;;;;-144.05;61.85;57029.38;5038548;28;20471;-77
2023/12/16 07:06:57;;;;;;;16.05;3.28;;;;;;;-144.05;61.66;57031.50;5037939;28;20041;-77
2023/12/16 07:09:23;;;;;;;7.90;3.08;;;;;;;-144.05;61.75;57044.25;5038269;28;20372;-78
2023/12/16 07:11:49;;;;;;;12.02;3.33;;;;;;;-144.05;61.93;57042.13;5037849;28;20060;-77
2023/12/16 07:14:15;;;;;;;13.93;3.33;;;;;;;-144.05;62.16;57065.47;5038085;28;20104;-78
2023/12/16 07:16:42;;;;;;;13.88;3.30;;;;;;;-144.05;61.57;57042.13;5038001;28;20025;-79
2023/12/16 07:19:08;;;;;;;16.42;3.22;;;;;;;-144.05;61.76;57006.00;5036934;28;20025;-77
2023/12/16 07:21:34;;;;;;;13.02;3.00;;;;;;;-144.05;62.00;57059.09;5037682;28;20044;-77
2023/12/16 07:24:00;;;;;;;12.32;2.85;;;;;;;-144.05;62.06;57048.50;5037280;28;20053;-78
2023/12/16 07:26:26;;;;;;;9.88;2.70;;;;;;;-144.05;62.69;57061.22;5037333;28;20025;-78
2023/12/16 07:28:53;;;;;;;13.65;2.88;;;;;;;-144.05;62.47;57029.38;5037622;28;20052;-78
2023/12/16 07:31:19;;;;;;;11.68;3.22;;;;;;;-144.05;62.68;57014.50;5037738;28;20021;-78
2023/12/16 07:33:45;;;;;;;11.60;2.92;;;;;;;-144.05;62.61;57048.50;5054150;22;20419;-84
2023/12/16 07:36:12;;;;;;;12.10;3.00;;;;;;;-144.05;63.03;57046.38;5019108;28;20036;-84
2023/12/16 07:38:38;;;;;;;17.05;3.67;;;;;;;-144.05;62.80;57003.88;5030813;28;20030;-84
2023/12/16 07:41:04;;;;;;;15.18;3.50;;;;;;;-144.05;63.04;57014.50;5027077;28;20057;-84
2023/12/16 07:43:31;;;;;;;13.60;2.92;;;;;;;-144.05;62.96;57018.75;5021471;28;20034;-82
2023/12/16 07:45:58;;;;;;;11.65;3.13;;;;;;;-144.05;63.00;57006.00;5014569;28;20108;-85
2023/12/16 07:48:24;;;;;;;8.50;2.75;;;;;;;-144.05;63.10;57033.63;5013679;28;20037;-85
2023/12/16 07:50:53;;;;;;;17.08;2.92;;;;;;;-144.05;63.47;56991.13;5031727;28;20480;-82
2023/12/16 07:53:22;;;;;;;14.88;2.92;;;;;;;-144.05;63.50;57042.13;5017595;28;20044;-85
2023/12/16 07:55:49;;;;;;;13.25;3.17;;;;;;;-144.05;63.67;57001.75;5013856;28;20033;-84
2023/12/16 07:58:16;;;;;;;12.02;2.72;;;;;;;-144.05;63.31;57025.13;5013526;28;20013;-83
2023/12/16 08:00:42;;;;;;;13.57;4.20;;;;;;;-144.05;63.31;57003.88;5039630;28;20025;-85
2023/12/16 08:03:09;;;;;;;14.35;3.45;;;;;;;-144.05;63.83;57033.63;5030570;28;20040;-84
2023/12/16 08:05:35;;;;;;;8.55;3.00;;;;;;;-144.05;63.87;57040.00;5030789;28;20061;-84
2023/12/16 08:08:02;;;;;;;11.50;3.25;;;;;;;-144.05;63.80;57029.38;5024005;28;20037;-84
2023/12/16 08:10:29;;;;;;;12.88;3.05;;;;;;;-144.05;63.95;57042.13;5023784;28;20468;-84
2023/12/16 08:12:55;;;;;;;14.35;3.97;;;;;;;-144.05;63.76;57020.88;5008064;28;20033;-86
2023/12/16 08:15:22;;;;;;;16.90;3.75;;;;;;;-144.05;64.19;57014.50;5018525;28;20041;-85
2023/12/16 08:17:48;;;;;;;9.55;3.65;;;;;;;-144.05;63.73;57020.88;5035909;28;20025;-83
2023/12/16 08:20:14;;;;;;;10.98;3.13;;;;;;;-144.05;63.87;57025.13;5033902;28;20022;-84
2023/12/16 08:22:41;;;;;;;13.57;2.60;;;;;;;-144.05;63.79;57044.25;5034480;28;20029;-85
2023/12/16 08:25:08;;;;;;;17.08;3.83;;;;;;;-144.05;63.72;57035.75;5034458;28;20032;-85
2023/12/16 08:27:34;;;;;;;13.98;3.20;;;;;;;-144.05;64.03;57001.75;5030789;28;20480;-85
2023/12/16 08:30:01;;;;;;;15.65;3.38;;;;;;;-144.05;63.72;57029.38;5014561;28;20030;-84
2023/12/16 08:32:27;;;;;;;12.43;3.55;;;;;;;-144.05;64.20;57012.38;5015716;28;20026;-86
2023/12/16 08:34:54;;;;;;;16.67;3.70;;;;;;;-144.05;63.96;57044.25;5014362;28;20034;-84
2023/12/16 08:37:20;;;;;;;9.88;2.75;;;;;;;-144.05;63.48;57033.63;5011601;28;20029;-85
2023/12/16 08:39:46;;;;;;;12.75;3.05;;;;;;;-144.05;63.03;56999.63;5034406;28;20026;-85
2023/12/16 08:42:12;;;;;;;14.55;3.80;;;;;;;-144.05;63.26;57014.50;5017252;28;20029;-85
2023/12/16 08:44:39;;;;;;;9.85;3.15;;;;;;;-144.05;62.51;57016.63;5017879;28;20403;-86
2023/12/16 08:47:06;;;;;;;14.20;2.90;;;;;;;-144.05;62.87;57018.75;5017343;28;20029;-84
2023/12/16 08:49:32;;;;;;;13.38;2.83;;;;;;;-144.05;62.94;57042.13;5014073;28;20033;-85
2023/12/16 08:51:59;;;;;;;13.88;3.30;;;;;;;-144.05;62.58;57006.00;4998333;28;20026;-85
2023/12/16 08:54:26;;;;;;;10.98;3.60;;;;;;;-144.05;62.64;57035.75;5004327;28;20630;-86
2023/12/16 08:56:53;;;;;;;13.95;3.42;;;;;;;-144.05;62.20;56986.91;5017784;28;20040;-82
2023/12/16 08:59:19;;;;;;;12.05;3.30;;;;;;;-144.05;61.98;57027.25;5017471;28;20029;-83
2023/12/16 09:01:47;;;;;;;18.67;3.80;;;;;;;-144.05;61.40;57003.88;5033940;28;20036;-83
2023/12/16 09:04:13;;;;;;;14.75;3.10;;;;;;;-144.05;61.77;57010.25;5013693;28;20061;-86
2023/12/16 09:06:41;;;;;;;13.90;2.55;;;;;;;-144.05;60.92;57014.50;5015112;28;20049;-85
2023/12/16 09:09:07;;;;;;;18.92;3.45;;;;;;;-144.05;61.26;57023.00;4998447;28;20573;-86
2023/12/16 09:11:34;;;;;;;17.33;3.45;;;;;;;-144.05;61.69;56991.13;4998537;28;20072;-84
2023/12/16 09:14:00;;;;;;;15.10;2.90;;;;;;;-144.05;61.99;56997.50;4999877;28;20034;-84
2023/12/16 09:16:26;;;;;;;15.55;2.90;;;;;;;-144.05;61.82;57003.88;5027319;28;20029;-83
2023/12/16 09:18:53;;;;;;;15.05;3.65;;;;;;;-144.05;62.03;57023.00;5017256;28;20048;-84
2023/12/16 09:21:19;;;;;;;12.57;3.47;;;;;;;-144.05;61.88;57014.50;5018344;28;20022;-87
2023/12/16 09:23:45;;;;;;;12.98;3.28;;;;;;;-144.05;61.79;56997.50;5017924;28;20026;-86
2023/12/16 09:26:11;;;;;;;13.10;2.90;;;;;;;-144.05;61.09;57003.88;5014583;28;20080;-86
2023/12/16 09:28:38;;;;;;;9.02;2.67;;;;;;;-144.05;60.93;57033.63;5014631;28;20030;-86
2023/12/16 09:31:04;;;;;;;13.95;3.00;;;;;;;-144.05;61.13;57014.50;5001301;28;20034;-84
2023/12/16 09:33:31;;;;;;;14.00;3.15;;;;;;;-144.05;61.75;57006.00;5017717;28;20075;-86
2023/12/16 09:35:57;;;;;;;14.30;3.00;;;;;;;-144.05;61.75;57010.25;5017946;28;20231;-85
2023/12/16 09:38:23;;;;;;;15.98;3.30;;;;;;;-144.05;62.09;57016.63;5018088;28;20021;-88
2023/12/16 09:40:51;;;;;;;12.00;3.08;;;;;;;-144.05;61.96;57006.00;5015032;28;20080;-86
2023/12/16 09:43:17;;;;;;;12.27;2.95;;;;;;;-144.05;62.63;57027.25;5010758;28;20029;-85
2023/12/16 09:45:48;;;;;;;11.98;2.85;;;;;;;-144.05;62.64;57035.75;5017985;28;20079;-86
2023/12/16 09:48:19;;;;;;;15.57;3.00;;;;;;;-144.05;63.41;57020.88;5033446;28;20040;-87
2023/12/16 09:50:46;;;;;;;8.73;2.72;;;;;;;-144.05;62.81;56984.78;5016927;28;20472;-86
2023/12/16 09:53:12;;;;;;;12.68;3.10;;;;;;;-144.05;62.69;57006.00;5027258;28;20029;-86
2023/12/16 09:55:58;;;;;;;12.23;3.15;;;9.30;99.90;;;-144.05;61.86;57016.63;5030921;28;20046;-85
2023/12/16 09:58:27;;;;;;;9.32;3.22;;;;;;;-144.05;61.85;57035.75;4998657;28;20038;-85
2023/12/16 10:00:54;;;;;;;16.95;3.00;;;;;;;-144.05;60.89;57012.38;5016536;28;20026;-86
2023/12/16 10:03:20;;;;;;;13.80;3.40;;;;;;;-144.05;61.81;57018.75;5002921;28;20057;-86
2023/12/16 10:05:50;;;;;;;11.90;3.08;;;8.90;99.90;;;-144.05;61.86;56999.63;5035536;28;20034;-86
2023/12/16 10:08:16;;;;;;;17.38;3.78;;;;;;;-144.05;61.18;56993.25;5017703;28;20059;-86
2023/12/16 10:10:42;;;;;;;16.77;3.03;;;;;;;-144.05;60.49;56997.50;5012123;28;20053;-86
2023/12/16 10:13:09;;;;;;;8.15;2.80;;;;;;;-144.05;60.37;57020.88;5003174;28;20041;-87
2023/12/16 10:15:37;;;;;;;18.55;2.80;;;;;;;-144.05;60.75;57042.13;5001336;28;20026;-84
2023/12/16 10:18:04;;;;;;;9.57;2.90;;;;;;;-144.05;61.28;57025.13;4998615;28;20030;-84
2023/12/16 10:20:31;;;;;;;13.38;2.72;;;;;;;-144.05;61.73;57016.63;5010160;28;20503;-85
2023/12/16 10:23:03;;;;;;;18.52;3.25;;;;;;;-144.05;62.57;57048.50;5006686;28;20083;-88
2023/12/16 10:25:33;;;;;;;13.63;3.00;;;;;;;-144.05;62.32;56999.63;5000447;28;20030;-86
2023/12/16 10:28:00;;;;;;;13.52;2.97;;;;;;;-144.05;62.23;56974.16;5002372;28;20040;-88
2023/12/16 10:30:30;;;;;;;15.07;2.70;;;;;;;-144.05;61.70;57016.63;5002438;28;20129;-85
2023/12/16 10:33:02;;;;;;;14.32;3.08;;;;;;;-144.05;62.24;57006.00;5020511;28;20056;-87
2023/12/16 10:35:33;;;;;;;18.65;2.85;;;;;;;-144.05;62.03;56999.63;5002615;28;20058;-86
2023/12/16 10:37:59;;;;;;;10.70;2.50;;;;;;;-144.05;61.90;56995.38;5021360;28;20132;-87
2023/12/16 10:40:26;;;;;;;18.75;3.15;;;;;;;-144.05;62.01;56986.91;5019006;28;20033;-86
2023/12/16 10:42:55;;;;;;;16.20;2.67;;;9.50;99.90;;;-144.05;61.53;57003.88;5018949;28;20145;-87
2023/12/16 10:45:22;;;;;;;11.90;2.85;;;;;;;-144.05;61.81;57018.75;5030134;28;20041;-86
2023/12/16 10:47:49;;;;;;;14.18;3.17;;;;;;;-144.05;62.05;57035.75;5003156;28;20053;-84
2023/12/16 10:50:18;;;;;;;11.18;3.00;;;;;;;-144.05;62.25;57012.38;5019676;28;20026;-88
2023/12/16 10:53:08;;;;;;;15.48;2.67;;;;;;;-144.05;62.50;57012.38;5008326;28;20384;-87
2023/12/16 10:55:50;;;;;;;12.98;3.80;;;;;;;-144.05;62.82;56989.00;5022139;28;20037;-85
2023/12/16 10:58:30;;;;;;;18.80;3.00;;;10.00;99.90;;;-144.05;63.26;57016.63;5021763;28;20084;-86
2023/12/16 11:01:18;;;;;;;14.18;2.60;;;;;;;-144.05;62.84;57018.75;5018252;28;20058;-84
2023/12/16 11:04:23;;;;;;;14.55;2.97;;;;;;;-144.05;62.65;57023.00;5018842;28;20037;-87
2023/12/16 11:07:10;;;;;;;10.10;2.70;;;;;;;-144.05;63.57;56978.41;5012559;28;20030;-85